Time;durP1;ratioP1;P1;durP2;ratioP2;P2;SDS_P1;SDS_P2;PMS_P1;PMS_P2;Temp;Humidity;BMP_temperature;BMP_pressure;BME280_temperature;BME280_humidity;BME280_pressure;Samples;Min_cycle;Max_cycle;Signal;HPM_P1;HPM_P2
2021/12/30 00:00:57;;;;;;;1.30;0.40;;;;;;;11.82;82.05;97223.59;5025243;28;20516;-55
2021/12/30 00:03:24;;;;;;;2.77;0.40;;;;;;;11.90;82.02;97225.03;5026174;28;20033;-57
2021/12/30 00:05:52;;;;;;;1.30;0.30;;;;;;;11.88;82.29;97240.72;5026273;28;20284;-59
2021/12/30 00:08:21;;;;;;;2.50;0.80;;;;;;;11.81;82.56;97230.13;5025920;28;20041;-57
2021/12/30 00:10:48;;;;;;;5.40;1.75;;;;;;;11.83;82.54;97245.06;5026618;28;20044;-58
2021/12/30 00:13:15;;;;;;;3.00;1.00;;;;;;;11.77;82.57;97235.25;5026484;28;20045;-58
2021/12/30 00:15:42;;;;;;;2.08;0.70;;;;;;;11.77;82.65;97248.81;5025087;28;20120;-59
2021/12/30 00:18:10;;;;;;;3.17;1.08;;;;;;;11.82;82.29;97275.16;5026712;28;20429;-59
2021/12/30 00:20:37;;;;;;;2.05;0.57;;;;;;;11.90;81.83;97263.00;5024111;28;20040;-58
2021/12/30 00:23:06;;;;;;;3.47;1.33;;;;;;;11.79;82.16;97273.78;5025410;28;20041;-59
2021/12/30 00:25:39;;;;;;;3.40;0.60;;;;;;;11.77;82.13;97291.41;5025989;28;20436;-59
2021/12/30 00:28:07;;;;;;;4.40;0.85;;;;;;;11.83;81.70;97291.16;5026183;28;20057;-59
2021/12/30 00:30:34;;;;;;;1.00;0.60;;;;;;;11.90;81.40;97303.69;5026572;28;20033;-59
2021/12/30 00:33:01;;;;;;;1.98;0.45;;;;;;;11.80;81.72;97291.69;5025960;28;20045;-60
2021/12/30 00:35:27;;;;;;;2.05;0.90;;;;;;;11.77;81.69;97294.13;5017735;28;20053;-59
2021/12/30 00:37:54;;;;;;;5.70;1.15;;;;;;;11.74;81.76;97309.03;5025080;28;20045;-59
2021/12/30 00:40:21;;;;;;;2.38;0.52;;;;;;;11.77;81.65;97313.94;5025345;28;20514;-59
2021/12/30 00:42:47;;;;;;;2.35;0.63;;;;;;;11.76;81.51;97304.13;5026423;28;20051;-57
2021/12/30 00:45:14;;;;;;;1.30;0.47;;;;;;;11.68;81.92;97318.19;5025625;28;20063;-56
2021/12/30 00:47:41;;;;;;;0.85;0.43;;;;;;;11.64;82.12;97315.19;5025417;28;20045;-57
2021/12/30 00:50:08;;;;;;;1.92;0.70;;;;;;;11.65;81.85;97316.81;5025353;28;20501;-58
2021/12/30 00:52:34;;;;;;;2.58;0.73;;;;;;;11.68;81.35;97318.19;5025666;28;20045;-57
2021/12/30 00:55:03;;;;;;;1.00;0.50;;;;;;;11.59;82.02;97331.44;5025367;28;20123;-55
2021/12/30 00:57:30;;;;;;;1.13;0.38;;;;;;;11.60;82.08;97321.41;5025598;28;20049;-59
2021/12/30 00:59:57;;;;;;;1.30;0.40;;;;;;;11.63;82.01;97340.69;5025216;28;20053;-57
2021/12/30 01:02:24;;;;;;;0.75;0.35;;;;;;;11.55;82.34;97341.97;5026132;28;20057;-57
2021/12/30 01:04:50;;;;;;;1.13;0.47;;;;;;;11.64;81.70;97331.47;5025500;28;20041;-57
2021/12/30 01:07:17;;;;;;;2.40;0.50;;;;;;;11.58;82.20;97344.16;5025144;28;20048;-59
2021/12/30 01:09:43;;;;;;;1.42;0.60;;;;;;;11.63;81.83;97350.69;5025935;28;20037;-59
2021/12/30 01:12:10;;;;;;;2.10;0.50;;;;;;;11.66;81.71;97345.59;5024960;28;20046;-59
2021/12/30 01:14:37;;;;;;;1.50;0.52;;;;;;;11.64;81.57;97342.31;5025800;28;20041;-59
2021/12/30 01:17:26;;;;;;;2.65;0.50;;;;;;;11.63;81.10;97346.09;5025790;28;20042;-60
2021/12/30 01:19:53;;;;;;;0.93;0.47;;;;;;;11.58;81.29;97348.78;5025129;28;20060;-59
2021/12/30 01:22:27;;;;;;;1.80;0.43;;;;;;;11.60;81.47;97356.66;5025816;28;20045;-60
2021/12/30 01:24:55;;;;;;;1.90;0.57;;;;;;;11.66;81.01;97356.44;5025821;28;20051;-59
2021/12/30 01:27:22;;;;;;;3.25;0.63;;;;;;;11.66;80.69;97353.72;5025456;28;20044;-59
2021/12/30 01:29:50;;;;;;;2.47;0.57;;;;;;;11.64;81.05;97349.63;5025816;28;20037;-59
2021/12/30 01:32:17;;;;;;;1.92;0.60;;;;;;;11.63;80.93;97351.53;5025231;28;20476;-59
2021/12/30 01:34:43;;;;;;;1.98;0.70;;;;;;;11.60;81.26;97353.94;5025615;28;20049;-59
2021/12/30 01:37:12;;;;;;;3.28;0.70;;;;;;;11.67;80.44;97374.34;5022740;28;20049;-57
2021/12/30 01:39:40;;;;;;;2.38;1.20;;;;;;;11.65;80.81;97364.84;5023787;28;20045;-59
2021/12/30 01:42:10;;;;;;;4.68;0.77;;;;;;;11.51;81.18;97361.72;5025517;28;20421;-58
2021/12/30 01:44:37;;;;;;;1.60;0.55;;;;;;;11.47;81.12;97369.56;5025198;28;20045;-58
2021/12/30 01:47:04;;;;;;;1.73;0.45;;;;;;;11.47;81.02;97369.56;5025200;28;20037;-58
2021/12/30 01:49:31;;;;;;;2.63;1.00;;;;;;;11.41;81.14;97371.41;5025407;28;20065;-58
2021/12/30 01:51:59;;;;;;;1.65;0.63;;;;;;;11.37;81.02;97380.31;5024656;28;20052;-59
2021/12/30 01:54:26;;;;;;;3.10;0.50;;;;;;;11.43;80.87;97384.72;5024622;28;20048;-57
2021/12/30 01:56:56;;;;;;;3.53;0.60;;;;;;;11.34;80.94;97397.91;5023204;28;20060;-59
2021/12/30 01:59:24;;;;;;;1.67;0.43;;;;;;;11.37;80.84;97393.84;5024618;28;20052;-59
2021/12/30 02:01:56;;;;;;;4.15;0.90;;;;;;;11.48;80.27;97398.31;5024733;28;20033;-59
2021/12/30 02:04:27;;;;;;;2.05;0.57;;;;;;;11.51;80.21;97399.69;5024877;28;20049;-59
2021/12/30 02:06:55;;;;;;;1.98;0.63;;;;;;;11.52;80.28;97412.16;5031170;28;20041;-59
2021/12/30 02:09:22;;;;;;;2.00;0.47;;;;;;;11.44;80.83;97416.16;5042664;28;20049;-59
2021/12/30 02:11:50;;;;;;;2.95;0.80;;;;;;;11.43;81.15;97417.25;5016754;28;20055;-59
2021/12/30 02:14:17;;;;;;;1.05;0.57;;;;;;;11.55;80.85;97415.19;5028580;28;20426;-60
2021/12/30 02:16:44;;;;;;;3.50;0.80;;;;;;;11.62;80.80;97425.00;5025357;28;20042;-59
2021/12/30 02:19:11;;;;;;;0.82;0.52;;;;;;;11.66;80.57;97418.81;5028541;28;20121;-60
2021/12/30 02:21:38;;;;;;;2.45;0.50;;;;;;;11.68;80.63;97423.97;5028374;28;20042;-59
2021/12/30 02:24:05;;;;;;;2.00;0.60;;;;;;;11.72;80.84;97427.78;5028643;28;20049;-59
2021/12/30 02:26:32;;;;;;;1.70;0.47;;;;;;;11.70;81.41;97429.97;5035372;28;20041;-59
2021/12/30 02:28:58;;;;;;;0.80;0.40;;;;;;;11.68;81.58;97430.22;5041326;28;20111;-59
2021/12/30 02:31:28;;;;;;;0.70;0.40;;;;;;;11.63;81.78;97434.78;5027363;28;20087;-59
2021/12/30 02:33:56;;;;;;;0.75;0.40;;;;;;;11.71;81.62;97418.84;5028764;28;20529;-60
2021/12/30 02:36:26;;;;;;;2.78;0.70;;;;;;;11.76;81.14;97437.06;5028239;28;20034;-59
2021/12/30 02:38:53;;;;;;;0.52;0.25;;;;;;;11.87;80.96;97434.44;5028780;28;20038;-58
2021/12/30 02:41:19;;;;;;;1.40;0.77;;;;;;;11.79;81.51;97431.13;5028318;28;20037;-60
2021/12/30 02:43:48;;;;;;;1.42;0.45;;;;;;;11.81;81.72;97439.00;5028388;28;20068;-59
2021/12/30 02:46:19;;;;;;;1.95;0.60;;;;;;;11.86;81.50;97436.31;5028724;28;20046;-59
2021/12/30 02:48:46;;;;;;;2.30;0.60;;;;;;;11.86;81.99;97432.81;5027983;28;20037;-59
2021/12/30 02:51:13;;;;;;;1.65;0.45;;;;;;;11.86;82.42;97438.25;5025743;28;20124;-60
2021/12/30 02:53:39;;;;;;;1.63;0.60;;;;;;;11.83;82.25;97439.53;5028166;28;20048;-59
2021/12/30 02:56:07;;;;;;;1.50;0.40;;;;;;;11.73;82.76;97436.75;5028434;28;20053;-59
2021/12/30 02:58:34;;;;;;;1.02;0.60;;;;;;;11.74;82.81;97446.53;5048476;28;20049;-59
2021/12/30 03:01:20;;;;;;;2.38;0.57;;;;;;;11.79;82.39;97446.59;5046709;28;20079;-60
2021/12/30 03:03:48;;;;;;;1.30;0.52;;;;;;;11.81;82.51;97449.84;5028505;28;20044;-59
2021/12/30 03:06:16;;;;;;;2.38;0.70;;;;;;;11.88;82.32;97449.63;5026956;28;20052;-59
2021/12/30 03:08:44;;;;;;;0.50;0.32;;;;;;;11.97;81.98;97448.06;5026753;28;20056;-59
2021/12/30 03:11:12;;;;;;;2.40;0.45;;;;;;;11.96;82.04;97443.72;5027653;28;20437;-60
2021/12/30 03:13:42;;;;;;;0.82;0.40;;;;;;;11.88;82.54;97452.34;5027922;28;20128;-59
2021/12/30 03:16:14;;;;;;;1.35;0.65;;;;;;;11.78;83.16;97448.47;5027023;28;20064;-59
2021/12/30 03:18:43;;;;;;;2.05;0.55;;;;;;;11.88;82.71;97450.47;5027695;28;20110;-58
2021/12/30 03:21:14;;;;;;;1.75;0.40;;;;;;;11.92;82.78;97445.34;5027492;28;20489;-59
2021/12/30 03:23:41;;;;;;;2.55;0.40;;;;;;;11.95;82.48;97456.47;5027959;28;20053;-56
2021/12/30 03:26:08;;;;;;;1.77;0.60;;;;;;;11.91;82.99;97454.56;5026152;28;20038;-55
2021/12/30 03:28:36;;;;;;;0.52;0.40;;;;;;;11.92;83.06;97456.19;5027235;28;20041;-56
2021/12/30 03:31:03;;;;;;;1.17;0.50;;;;;;;11.84;83.60;97463.72;5026764;28;20037;-59
2021/12/30 03:33:31;;;;;;;0.55;0.40;;;;;;;11.87;83.50;97475.94;5027384;28;20041;-59
2021/12/30 03:36:00;;;;;;;1.02;0.38;;;;;;;11.90;83.12;97477.34;5027642;28;20038;-59
2021/12/30 03:38:35;;;;;;;0.60;0.30;;;;;;;11.88;83.38;97482.19;5027247;28;20041;-59
2021/12/30 03:41:04;;;;;;;1.52;0.47;;;;;;;11.86;83.71;97489.78;5026924;28;20041;-58
2021/12/30 03:43:31;;;;;;;0.70;0.40;;;;;;;11.89;83.54;97502.81;5027544;28;20049;-60
2021/12/30 03:45:58;;;;;;;1.90;0.30;;;;;;;11.81;83.97;97488.66;5026600;28;20049;-59
2021/12/30 03:48:32;;;;;;;0.82;0.20;;;;;;;11.76;84.22;97485.06;5027543;28;20048;-60
2021/12/30 03:51:06;;;;;;;0.73;0.30;;;;;;;11.74;84.32;97490.75;5026869;28;20061;-60
2021/12/30 03:53:38;;;;;;;0.22;0.22;;;;;;;11.66;84.53;97496.63;5023062;28;20041;-59
2021/12/30 03:56:12;;;;;;;1.38;0.30;;;;;;;11.69;84.70;97493.44;5025966;28;20117;-60
2021/12/30 03:58:41;;;;;;;0.60;0.20;;;;;;;11.80;84.56;97503.28;5026582;28;20103;-60
2021/12/30 04:01:10;;;;;;;0.80;0.30;;;;;;;11.65;85.48;97503.16;5025866;28;20041;-60
2021/12/30 04:03:37;;;;;;;0.45;0.30;;;;;;;11.67;86.08;97511.84;5025201;28;20543;-60
2021/12/30 04:06:04;;;;;;;0.95;0.40;;;;;;;11.59;86.95;97515.81;5026076;28;20049;-60
2021/12/30 04:08:31;;;;;;;0.52;0.28;;;;;;;11.60;87.21;97514.75;5026627;28;20056;-60
2021/12/30 04:10:57;;;;;;;0.47;0.22;;;;;;;11.47;88.01;97520.56;5019105;28;20504;-59
2021/12/30 04:13:24;;;;;;;0.10;0.10;;;;;;;11.53;88.30;97528.50;5027081;28;20413;-57
2021/12/30 04:15:52;;;;;;;1.50;0.30;;;;;;;11.40;88.85;97528.91;5026249;28;20095;-58
2021/12/30 04:18:19;;;;;;;3.25;0.35;;;;;;;11.36;89.22;97531.31;5026754;28;20048;-58
2021/12/30 04:20:46;;;;;;;0.47;0.20;;;;;;;11.36;89.44;97534.03;5025376;28;20056;-58
2021/12/30 04:23:14;;;;;;;0.88;0.30;;;;;;;11.35;89.46;97535.06;5026687;28;20505;-59
2021/12/30 04:25:41;;;;;;;1.63;0.30;;;;;;;11.29;89.79;97531.50;5026841;28;20049;-59
2021/12/30 04:28:08;;;;;;;2.05;0.30;;;;;;;11.10;90.35;97532.88;5026352;28;20652;-58
2021/12/30 04:30:36;;;;;;;0.40;0.30;;;;;;;10.90;91.46;97534.25;5024889;28;20034;-56
2021/12/30 04:33:04;;;;;;;0.47;0.28;;;;;;;10.91;91.78;97530.47;5026317;28;20041;-57
2021/12/30 04:35:31;;;;;;;0.63;0.30;;;;;;;10.90;91.63;97539.66;5023874;28;20609;-58
2021/12/30 04:37:57;;;;;;;1.65;0.28;;;;;;;10.79;92.63;97538.69;5026344;28;20111;-57
2021/12/30 04:40:27;;;;;;;2.05;0.55;;;;;;;10.89;92.51;97535.31;5026197;28;20052;-57
2021/12/30 04:42:55;;;;;;;1.75;0.30;;;;;;;10.75;92.67;97529.44;5024670;28;20088;-56
2021/12/30 04:45:21;;;;;;;1.88;0.20;;;;;;;10.87;92.96;97534.75;5026311;28;20050;-57
2021/12/30 04:47:48;;;;;;;1.27;0.32;;;;;;;10.88;92.27;97544.53;5025877;28;20405;-56
2021/12/30 04:50:15;;;;;;;1.85;0.40;;;;;;;10.88;92.17;97544.53;5021793;28;20045;-58
2021/12/30 04:52:41;;;;;;;1.83;0.40;;;;;;;10.80;92.64;97552.00;5022826;28;20041;-58
2021/12/30 04:55:08;;;;;;;2.40;0.90;;;;;;;10.85;92.61;97545.00;5024151;28;20045;-57
2021/12/30 04:57:35;;;;;;;1.52;0.30;;;;;;;10.92;92.52;97545.66;5039913;28;20432;-58
2021/12/30 05:00:07;;;;;;;1.67;0.40;;;;;;;10.96;92.01;97552.22;5038886;28;20079;-58
2021/12/30 05:02:49;;;;;;;0.80;0.40;;;;;;;11.04;91.75;97551.78;5023922;28;20540;-58
2021/12/30 05:05:16;;;;;;;1.67;0.73;;;;;;;11.09;91.54;97563.78;5024308;28;20037;-56
2021/12/30 05:07:42;;;;;;;0.98;0.30;;;;;;;11.05;91.47;97563.44;5025343;28;20048;-58
2021/12/30 05:10:09;;;;;;;0.93;0.32;;;;;;;11.11;91.46;97557.03;5025057;28;20467;-58
2021/12/30 05:12:35;;;;;;;0.45;0.22;;;;;;;11.12;91.12;97561.38;5025637;28;20044;-56
2021/12/30 05:15:03;;;;;;;1.50;0.30;;;;;;;11.13;90.92;97573.03;5025490;28;20512;-57
2021/12/30 05:17:30;;;;;;;0.22;0.22;;;;;;;11.10;90.75;97570.81;5025521;28;20056;-59
2021/12/30 05:19:56;;;;;;;0.35;0.20;;;;;;;11.09;90.87;97569.19;5025252;28;20057;-56
2021/12/30 05:22:23;;;;;;;0.63;0.40;;;;;;;11.08;90.72;97576.47;5025071;28;20044;-58
2021/12/30 05:24:49;;;;;;;1.20;0.45;;;;;;;11.07;90.66;97574.84;5025600;28;20053;-58
2021/12/30 05:27:18;;;;;;;0.90;0.28;;;;;;;11.05;90.49;97572.38;5025274;28;20065;-59
2021/12/30 05:29:44;;;;;;;0.77;0.28;;;;;;;11.03;90.52;97577.22;5025504;28;20049;-58
2021/12/30 05:32:11;;;;;;;0.68;0.38;;;;;;;10.99;90.59;97581.50;5025752;28;20681;-57
2021/12/30 05:34:38;;;;;;;0.50;0.35;;;;;;;10.93;90.52;97585.22;5023111;28;20072;-58
2021/12/30 05:37:04;;;;;;;0.75;0.30;;;;;;;10.88;90.83;97583.25;5024994;28;20056;-58
2021/12/30 05:39:35;;;;;;;0.57;0.32;;;;;;;10.93;90.74;97587.94;5025349;28;20052;-57
2021/12/30 05:42:01;;;;;;;0.30;0.30;;;;;;;10.87;90.61;97589.75;5028527;28;20440;-56
2021/12/30 05:44:28;;;;;;;0.52;0.25;;;;;;;10.97;90.80;97594.50;5009495;28;20048;-54
2021/12/30 05:46:55;;;;;;;0.50;0.30;;;;;;;10.91;90.63;97590.06;5009517;28;20111;-57
2021/12/30 05:49:21;;;;;;;4.70;0.30;;;;;;;10.97;90.81;97593.66;5025667;28;20052;-59
2021/12/30 05:51:49;;;;;;;2.88;0.55;;;;;;;10.98;90.61;97596.13;5027001;28;20091;-56
2021/12/30 05:54:15;;;;;;;0.55;0.20;;;;;;;11.00;90.57;97604.00;5014673;28;20053;-57
2021/12/30 05:56:42;;;;;;;1.98;0.30;;;;;;;10.98;90.67;97606.97;5026266;28;20041;-58
2021/12/30 05:59:08;;;;;;;0.47;0.30;;;;;;;10.95;91.00;97601.22;5026288;28;20038;-56
2021/12/30 06:01:35;;;;;;;1.60;0.30;;;;;;;10.91;90.86;97600.91;5029249;28;20041;-57
2021/12/30 06:04:02;;;;;;;1.63;0.30;;;;;;;10.98;90.80;97611.56;5027455;28;20589;-56
2021/12/30 06:06:29;;;;;;;0.30;0.20;;;;;;;11.03;90.78;97608.94;5024799;28;20071;-59
2021/12/30 06:08:56;;;;;;;1.17;0.50;;;;;;;11.04;90.58;97611.41;5021951;28;20064;-59
2021/12/30 06:11:22;;;;;;;0.68;0.30;;;;;;;11.09;90.54;97613.34;5019805;28;20046;-58
2021/12/30 06:13:49;;;;;;;0.90;0.60;;;;;;;11.09;90.43;97612.53;5027741;28;20095;-58
2021/12/30 06:16:16;;;;;;;1.15;0.57;;;;;;;10.97;91.00;97608.03;5027093;28;20606;-59
2021/12/30 06:18:42;;;;;;;1.60;0.50;;;;;;;11.02;90.95;97616.22;5026893;28;20079;-57
2021/12/30 06:21:09;;;;;;;1.95;0.82;;;;;;;11.02;90.71;97618.13;5028801;28;20052;-58
2021/12/30 06:23:35;;;;;;;1.65;0.70;;;;;;;11.04;90.77;97624.13;5026784;28;20095;-56
2021/12/30 06:26:02;;;;;;;2.03;0.60;;;;;;;11.06;90.86;97624.69;5027741;28;20060;-58
2021/12/30 06:28:28;;;;;;;1.23;0.50;;;;;;;11.06;90.75;97624.69;5018941;28;20055;-58
2021/12/30 06:30:55;;;;;;;1.33;0.60;;;;;;;10.97;91.30;97626.16;5028496;28;20042;-57
2021/12/30 06:33:22;;;;;;;3.70;1.73;;;;;;;11.02;91.26;97637.09;5028984;28;20049;-57
2021/12/30 06:35:48;;;;;;;2.88;0.70;;;;;;;11.02;91.52;97640.63;5027494;28;20053;-58
2021/12/30 06:38:15;;;;;;;1.27;0.60;;;;;;;11.05;91.38;97645.56;5028406;28;20041;-56
2021/12/30 06:40:41;;;;;;;1.15;0.50;;;;;;;11.08;91.36;97648.81;5027293;28;20045;-58
2021/12/30 06:43:09;;;;;;;2.45;0.68;;;;;;;11.01;91.55;97647.13;5028217;28;20060;-58
2021/12/30 06:45:35;;;;;;;0.70;0.50;;;;;;;10.92;92.00;97645.91;5027980;28;20042;-59
2021/12/30 06:48:05;;;;;;;1.58;0.50;;;;;;;10.96;91.99;97647.03;5028699;28;20811;-57
2021/12/30 06:50:32;;;;;;;0.93;0.55;;;;;;;10.95;92.05;97639.16;5027825;28;20046;-58
2021/12/30 06:52:59;;;;;;;1.05;0.43;;;;;;;10.88;92.20;97647.47;5026524;28;20042;-58
2021/12/30 06:55:26;;;;;;;2.30;0.63;;;;;;;10.97;92.14;97651.38;5028097;28;20052;-59
2021/12/30 06:57:52;;;;;;;0.98;0.38;;;;;;;11.01;91.76;97649.81;5027157;28;20041;-58
2021/12/30 07:00:21;;;;;;;0.93;0.30;;;;;;;11.01;91.76;97654.41;5026628;28;20053;-58
2021/12/30 07:02:47;;;;;;;1.83;0.40;;;;;;;11.04;91.83;97662.88;5021838;28;20050;-58
2021/12/30 07:05:14;;;;;;;1.60;0.32;;;;;;;10.95;91.99;97667.09;5028763;28;20137;-62
2021/12/30 07:07:43;;;;;;;1.13;0.38;;;;;;;10.94;92.05;97676.25;5021092;28;20061;-62
2021/12/30 07:10:10;;;;;;;0.95;0.30;;;;;;;10.99;91.97;97670.91;5025323;28;20045;-62
2021/12/30 07:12:37;;;;;;;1.45;0.30;;;;;;;11.05;91.76;97683.47;5024804;28;20061;-62
2021/12/30 07:15:06;;;;;;;0.90;0.40;;;;;;;10.99;92.07;97672.81;5023322;28;20517;-62
2021/12/30 07:17:32;;;;;;;1.58;0.47;;;;;;;11.04;91.85;97687.28;5022614;28;20401;-62
2021/12/30 07:19:59;;;;;;;0.68;0.40;;;;;;;11.09;91.47;97688.41;5024860;28;20417;-62
2021/12/30 07:22:26;;;;;;;1.10;0.40;;;;;;;11.05;nan;97691.63;5030963;28;20048;-62
2021/12/30 07:25:09;;;;;;;0.73;0.30;;;;;;;11.09;91.74;97701.97;5007501;28;20497;-62
2021/12/30 07:27:36;;;;;;;0.17;0.10;;;;;;;11.16;91.54;97713.44;5021585;28;20042;-61
2021/12/30 07:30:03;;;;;;;0.43;0.30;;;;;;;11.18;91.38;97717.53;5023710;28;20456;-62
2021/12/30 07:32:30;;;;;;;0.68;0.30;;;;;;;11.20;91.58;97717.28;5020454;28;20394;-62
2021/12/30 07:34:57;;;;;;;1.35;0.30;;;;;;;11.18;91.56;97719.44;5024722;28;20053;-62
2021/12/30 07:37:23;;;;;;;0.77;0.47;;;;;;;11.16;91.86;97719.69;5024504;28;20405;-62
2021/12/30 07:39:50;;;;;;;0.73;0.40;;;;;;;11.11;92.00;97714.19;5025449;28;20540;-62
2021/12/30 07:42:16;;;;;;;1.13;0.43;;;;;;;11.13;92.00;97720.19;5024439;28;20053;-62
2021/12/30 07:44:43;;;;;;;1.33;0.50;;;;;;;11.01;92.78;97719.44;5025667;28;20049;-62
2021/12/30 07:47:17;;;;;;;0.43;0.30;;;;;;;11.05;92.91;97721.41;5024287;28;20049;-62
2021/12/30 07:49:45;;;;;;;1.92;0.60;;;;;;;10.90;93.42;97727.41;5023949;28;20054;-62
2021/12/30 07:52:12;;;;;;;1.15;0.52;;;;;;;10.90;93.50;97726.56;5024336;28;20053;-62
2021/12/30 07:54:39;;;;;;;1.33;0.70;;;;;;;10.88;93.85;97715.19;5038976;28;20037;-62
2021/12/30 07:57:06;;;;;;;1.42;0.70;;;;;;;10.88;93.64;97723.31;5032186;28;20053;-62
2021/12/30 07:59:32;;;;;;;1.25;0.88;;;;;;;10.90;93.59;97723.88;5023336;28;20044;-61
2021/12/30 08:01:59;;;;;;;2.25;0.70;;;;;;;11.00;93.49;97724.06;5024584;28;20049;-62
2021/12/30 08:04:26;;;;;;;2.65;0.60;;;;;;;11.09;93.09;97737.19;5021450;28;21116;-62
2021/12/30 08:06:52;;;;;;;1.83;1.00;;;;;;;11.12;92.78;97728.56;5022540;28;20095;-62
2021/12/30 08:09:20;;;;;;;1.77;0.82;;;;;;;11.21;92.37;97734.41;5025006;28;20099;-62
2021/12/30 08:11:47;;;;;;;2.22;1.00;;;;;;;11.20;91.95;97738.97;5037130;28;20148;-62
2021/12/30 08:14:14;;;;;;;3.60;1.08;;;;;;;11.26;91.63;97738.00;5025099;28;20124;-62
2021/12/30 08:16:40;;;;;;;3.00;1.00;;;;;;;11.28;91.52;97733.16;5024860;28;20060;-62
2021/12/30 08:19:07;;;;;;;3.65;1.48;;;;;;;11.26;91.62;97737.19;5025277;28;20125;-62
2021/12/30 08:21:34;;;;;;;2.40;1.08;;;;;;;11.32;91.30;97731.59;5023423;28;20037;-62
2021/12/30 08:24:00;;;;;;;2.83;1.27;;;;;;;11.36;91.00;97729.22;5024443;28;20041;-62
2021/12/30 08:26:27;;;;;;;3.70;1.33;;;;;;;11.23;91.23;97734.94;5023539;28;20519;-61
2021/12/30 08:28:53;;;;;;;2.78;1.10;;;;;;;11.23;91.49;97734.94;5015837;28;20525;-60
2021/12/30 08:31:20;;;;;;;2.63;0.90;;;;;;;11.28;91.24;97745.91;5020173;28;20053;-61
2021/12/30 08:33:47;;;;;;;2.42;0.57;;;;;;;11.29;91.14;97742.94;5016452;28;20597;-60
2021/12/30 08:36:13;;;;;;;8.98;2.67;;;;;;;11.29;91.03;97742.13;5021145;28;20847;-60
2021/12/30 08:38:40;;;;;;;1.05;0.60;;;;;;;11.26;91.12;97737.19;5019859;28;20056;-61
2021/12/30 08:41:07;;;;;;;0.47;0.30;;;;;;;11.35;90.81;97741.09;5022467;28;20041;-61
2021/12/30 08:43:34;;;;;;;2.70;0.68;;;;;;;11.37;91.01;97738.16;5023661;28;20135;-61
2021/12/30 08:46:01;;;;;;;1.77;0.60;;;;;;;11.39;90.49;97734.13;5021204;28;20037;-62
2021/12/30 08:48:28;;;;;;;1.27;0.50;;;;;;;11.43;90.52;97737.97;5021752;28;20053;-62
2021/12/30 08:50:56;;;;;;;0.82;0.47;;;;;;;11.51;90.16;97733.22;5020947;28;20044;-62
2021/12/30 08:53:25;;;;;;;2.40;0.30;;;;;;;11.53;90.07;97731.88;5019797;28;20042;-62
2021/12/30 08:55:52;;;;;;;0.60;0.35;;;;;;;11.53;90.22;97731.88;5022967;28;20068;-62
2021/12/30 08:58:19;;;;;;;0.90;0.50;;;;;;;11.61;89.64;97727.91;5032889;28;20044;-62
2021/12/30 09:00:47;;;;;;;0.57;0.35;;;;;;;11.62;89.87;97726.03;5026814;28;20050;-62
2021/12/30 09:03:16;;;;;;;1.33;0.50;;;;;;;11.78;89.42;97733.31;5023450;28;20169;-62
2021/12/30 09:05:43;;;;;;;1.20;0.50;;;;;;;11.92;88.97;97741.91;5022270;28;20112;-62
2021/12/30 09:08:09;;;;;;;1.73;0.38;;;;;;;12.01;89.23;97736.06;5019776;28;20052;-62
2021/12/30 09:10:40;;;;;;;1.40;0.30;;;;;;;12.06;88.61;97733.44;5020467;28;20049;-62
2021/12/30 09:13:08;;;;;;;1.27;0.32;;;;;;;12.12;88.56;97734.31;5025481;28;20037;-62
2021/12/30 09:15:36;;;;;;;1.17;0.40;;;;;;;12.19;88.59;97721.34;5020276;28;20566;-61
2021/12/30 09:18:05;;;;;;;1.38;0.40;;;;;;;12.25;88.14;97725.78;5023689;28;20136;-62
2021/12/30 09:20:33;;;;;;;0.50;0.32;;;;;;;12.27;88.05;97728.25;5022518;28;20053;-62
2021/12/30 09:23:00;;;;;;;0.52;0.30;;;;;;;12.29;87.96;97729.63;5020305;28;20117;-62
2021/12/30 09:25:27;;;;;;;2.80;0.52;;;;;;;12.27;87.57;97731.75;5022675;28;20041;-62
2021/12/30 09:27:55;;;;;;;0.47;0.30;;;;;;;12.25;87.73;97735.81;5024272;28;20074;-62
2021/12/30 09:30:24;;;;;;;0.50;0.20;;;;;;;12.25;87.54;97739.34;5022449;28;20053;-62
2021/12/30 09:32:54;;;;;;;0.45;0.13;;;;;;;12.31;87.21;97740.25;5022661;28;20049;-62
2021/12/30 09:35:21;;;;;;;0.57;0.30;;;;;;;12.30;87.75;97739.41;5022361;28;20043;-62
2021/12/30 09:37:48;;;;;;;0.57;0.20;;;;;;;12.37;87.44;97741.91;5017811;28;20053;-62
2021/12/30 09:40:16;;;;;;;1.75;0.30;;;;;;;12.39;87.45;97738.97;5020988;28;20057;-62
2021/12/30 09:42:50;;;;;;;0.10;0.10;;;;;;;12.41;86.98;97736.78;5022920;28;20044;-62
2021/12/30 09:45:18;;;;;;;0.80;0.40;;;;;;;12.46;87.28;97750.44;5022180;28;20136;-62
2021/12/30 09:47:49;;;;;;;0.45;0.30;;;;;;;12.49;86.93;97753.47;5022891;28;20045;-62
2021/12/30 09:50:17;;;;;;;0.85;0.28;;;;;;;12.59;86.66;97754.66;5023181;28;20057;-62
2021/12/30 09:52:44;;;;;;;0.00;0.00;;;;;;;12.59;86.85;97747.31;5020524;28;20551;-61
2021/12/30 09:55:11;;;;;;;0.20;0.20;;;;;;;12.67;86.48;97750.63;5021112;28;20492;-62
2021/12/30 09:57:38;;;;;;;0.10;0.10;;;;;;;12.77;86.23;97752.66;5024725;28;20045;-62
2021/12/30 10:00:09;;;;;;;0.43;0.20;;;;;;;12.86;84.96;97748.38;5023313;28;20056;-62
2021/12/30 10:02:37;;;;;;;0.10;0.10;;;;;;;12.93;84.87;97749.00;5024697;28;20054;-62
2021/12/30 10:05:07;;;;;;;0.00;0.00;;;;;;;12.93;84.82;97761.78;5025193;28;20525;-62
2021/12/30 10:07:34;;;;;;;0.10;0.05;;;;;;;12.96;84.47;97759.34;5023406;28;20045;-61
2021/12/30 10:10:03;;;;;;;0.10;0.00;;;;;;;12.97;84.39;97757.47;5025278;28;20045;-61
2021/12/30 10:12:45;;;;;;;0.28;0.10;;;;;;;13.05;84.20;97758.88;5020772;28;20049;-61
2021/12/30 10:15:11;;;;;;;0.10;0.10;;;;;;;13.04;84.44;97760.78;5019820;28;20052;-61
2021/12/30 10:17:38;;;;;;;0.30;0.10;;;;;;;13.04;84.47;97760.78;5035248;28;20053;-61
2021/12/30 10:20:18;;;;;;;0.00;0.00;;;;;;;13.03;84.06;97775.44;5029718;28;20048;-61
2021/12/30 10:22:46;;;;;;;0.10;0.08;;;;;;;13.09;83.54;97774.41;5023068;28;20045;-61
2021/12/30 10:25:35;;;;;;;0.00;0.00;;;;;;;13.13;83.75;97775.53;5020800;28;20049;-62
2021/12/30 10:28:22;;;;;;;0.20;0.10;;;;;;;13.19;83.32;97776.41;5023281;28;20049;-61
2021/12/30 10:30:55;;;;;;;1.00;0.30;;;;;;;13.29;82.75;97777.56;5023745;28;20038;-61
2021/12/30 10:33:24;;;;;;;0.20;0.10;;;;;;;13.33;82.50;97776.78;5023904;28;20045;-67
2021/12/30 10:35:53;;;;;;;0.00;0.00;;;;;;;13.36;82.59;97775.44;5019963;28;20041;-62
2021/12/30 10:38:21;;;;;;;0.40;0.10;;;;;;;13.45;82.50;97773.06;5026180;28;20515;-62
2021/12/30 10:40:52;;;;;;;0.00;0.00;;;;;;;13.45;82.08;97782.03;5026266;28;20037;-61
2021/12/30 10:43:44;;;;;;;0.32;0.00;;;;;;;13.46;81.58;97786.41;5019760;28;20046;-61
2021/12/30 10:46:20;;;;;;;0.00;0.00;;;;;;;13.51;80.95;97782.94;5025097;28;20548;-61
2021/12/30 10:48:52;;;;;;;0.00;0.00;;;;;;;13.60;81.38;97775.13;5025646;28;20049;-62
2021/12/30 10:51:25;;;;;;;0.43;0.17;;;;;;;13.60;80.59;97767.75;5022468;28;20523;-62
2021/12/30 10:53:53;;;;;;;0.10;0.10;;;;;;;13.65;80.95;97767.78;5021926;28;20060;-62
2021/12/30 10:56:27;;;;;;;0.10;0.00;;;;;;;13.71;80.39;97771.38;5019550;28;20060;-61
2021/12/30 10:59:07;;;;;;;0.00;0.00;;;;;;;13.69;80.08;97772.72;5026055;28;20095;-61
2021/12/30 11:01:40;;;;;;;0.83;0.20;;;;;;;13.76;80.42;97778.75;5019231;28;20053;-61
2021/12/30 11:04:08;;;;;;;0.10;0.10;;;;;;;13.81;80.70;97786.13;5020192;28;20265;-61
2021/12/30 11:06:35;;;;;;;0.65;0.10;;;;;;;13.95;80.29;97783.75;5022116;28;20068;-61
2021/12/30 11:09:12;;;;;;;0.10;0.10;;;;;;;14.12;79.45;97789.03;5017847;28;20225;-61
2021/12/30 11:11:45;;;;;;;0.20;0.10;;;;;;;14.28;79.51;97781.72;5023353;28;20045;-62
2021/12/30 11:14:19;;;;;;;0.10;0.00;;;;;;;14.33;78.20;97784.47;5033274;28;20033;-61
2021/12/30 11:16:58;;;;;;;0.00;0.00;;;;;;;14.25;77.92;97780.34;5019802;28;20045;-62
2021/12/30 11:19:26;;;;;;;0.10;0.10;;;;;;;14.26;78.20;97781.19;5039136;28;20041;-61
2021/12/30 11:21:53;;;;;;;0.00;0.00;;;;;;;14.24;78.19;97776.00;5022936;28;20045;-62
2021/12/30 11:24:27;;;;;;;0.30;0.10;;;;;;;14.27;78.97;97772.72;5021409;28;20041;-61
2021/12/30 11:26:55;;;;;;;0.00;0.00;;;;;;;14.17;78.46;97778.16;5025313;28;20053;-61
2021/12/30 11:29:23;;;;;;;0.17;0.10;;;;;;;14.16;78.21;97771.88;5024600;28;20049;-62
2021/12/30 11:31:52;;;;;;;0.00;0.00;;;;;;;14.26;77.89;97771.09;5025194;28;20669;-61
2021/12/30 11:34:23;;;;;;;0.00;0.00;;;;;;;14.36;77.92;97774.94;5024443;28;20050;-62
2021/12/30 11:36:50;;;;;;;0.22;0.10;;;;;;;14.34;77.88;97779.84;5024483;28;20420;-62
2021/12/30 11:39:20;;;;;;;0.20;0.10;;;;;;;14.25;77.10;97777.63;5024054;28;20049;-61